sensor_id;sensor_type;location;lat;lon;timestamp;P1;durP1;ratioP1;P2;durP2;ratioP2
58152;SDS011;43967;51.634;5.566;2023-06-22T00:02:52;5.60;;;1.98;;
58152;SDS011;43967;51.634;5.566;2023-06-22T00:08:14;5.90;;;2.13;;
58152;SDS011;43967;51.634;5.566;2023-06-22T00:13:37;5.35;;;1.63;;
58152;SDS011;43967;51.634;5.566;2023-06-22T00:18:59;6.13;;;2.30;;
58152;SDS011;43967;51.634;5.566;2023-06-22T00:24:20;5.43;;;1.90;;
58152;SDS011;43967;51.634;5.566;2023-06-22T00:29:45;5.43;;;2.17;;
58152;SDS011;43967;51.634;5.566;2023-06-22T00:35:06;5.70;;;2.20;;
58152;SDS011;43967;51.634;5.566;2023-06-22T00:40:28;6.20;;;1.90;;
58152;SDS011;43967;51.634;5.566;2023-06-22T00:45:54;5.40;;;1.77;;
58152;SDS011;43967;51.634;5.566;2023-06-22T00:51:16;5.68;;;2.08;;
58152;SDS011;43967;51.634;5.566;2023-06-22T00:56:37;5.25;;;1.95;;
58152;SDS011;43967;51.634;5.566;2023-06-22T01:01:59;6.10;;;1.90;;
58152;SDS011;43967;51.634;5.566;2023-06-22T01:07:25;5.95;;;1.88;;
58152;SDS011;43967;51.634;5.566;2023-06-22T01:12:50;5.60;;;1.90;;
58152;SDS011;43967;51.634;5.566;2023-06-22T01:18:14;5.50;;;2.03;;
58152;SDS011;43967;51.634;5.566;2023-06-22T01:29:17;5.80;;;2.03;;
58152;SDS011;43967;51.634;5.566;2023-06-22T01:34:39;5.67;;;1.90;;
58152;SDS011;43967;51.634;5.566;2023-06-22T01:40:02;5.47;;;2.00;;
58152;SDS011;43967;51.634;5.566;2023-06-22T01:45:24;6.65;;;1.85;;
58152;SDS011;43967;51.634;5.566;2023-06-22T01:50:47;6.30;;;2.40;;
58152;SDS011;43967;51.634;5.566;2023-06-22T01:56:08;5.30;;;1.80;;
58152;SDS011;43967;51.634;5.566;2023-06-22T02:01:36;5.55;;;1.98;;
58152;SDS011;43967;51.634;5.566;2023-06-22T02:07:15;6.15;;;2.25;;
58152;SDS011;43967;51.634;5.566;2023-06-22T02:12:39;5.60;;;1.70;;
58152;SDS011;43967;51.634;5.566;2023-06-22T02:18:03;5.30;;;1.90;;
58152;SDS011;43967;51.634;5.566;2023-06-22T02:23:25;5.82;;;2.38;;
58152;SDS011;43967;51.634;5.566;2023-06-22T02:28:46;5.27;;;2.00;;
58152;SDS011;43967;51.634;5.566;2023-06-22T02:34:07;5.60;;;1.93;;
58152;SDS011;43967;51.634;5.566;2023-06-22T02:39:29;6.22;;;2.20;;
58152;SDS011;43967;51.634;5.566;2023-06-22T02:44:50;5.50;;;2.17;;
58152;SDS011;43967;51.634;5.566;2023-06-22T02:50:11;5.53;;;2.10;;
58152;SDS011;43967;51.634;5.566;2023-06-22T02:55:33;6.35;;;2.10;;
58152;SDS011;43967;51.634;5.566;2023-06-22T03:00:54;5.35;;;1.85;;
58152;SDS011;43967;51.634;5.566;2023-06-22T03:06:15;6.17;;;2.43;;
58152;SDS011;43967;51.634;5.566;2023-06-22T03:11:36;5.32;;;1.70;;
58152;SDS011;43967;51.634;5.566;2023-06-22T03:16:58;5.40;;;1.88;;
58152;SDS011;43967;51.634;5.566;2023-06-22T03:22:19;5.60;;;2.00;;
58152;SDS011;43967;51.634;5.566;2023-06-22T03:27:41;6.00;;;1.80;;
58152;SDS011;43967;51.634;5.566;2023-06-22T03:33:03;5.40;;;2.00;;
58152;SDS011;43967;51.634;5.566;2023-06-22T03:38:24;5.80;;;2.40;;
58152;SDS011;43967;51.634;5.566;2023-06-22T03:43:45;6.50;;;2.20;;
58152;SDS011;43967;51.634;5.566;2023-06-22T03:49:07;5.60;;;2.00;;
58152;SDS011;43967;51.634;5.566;2023-06-22T03:54:28;5.53;;;2.00;;
58152;SDS011;43967;51.634;5.566;2023-06-22T03:59:50;6.13;;;2.20;;
58152;SDS011;43967;51.634;5.566;2023-06-22T04:05:11;5.40;;;1.60;;
58152;SDS011;43967;51.634;5.566;2023-06-22T04:10:33;5.65;;;2.00;;
58152;SDS011;43967;51.634;5.566;2023-06-22T04:15:54;6.20;;;2.40;;
58152;SDS011;43967;51.634;5.566;2023-06-22T04:21:16;5.60;;;2.20;;
58152;SDS011;43967;51.634;5.566;2023-06-22T04:26:37;6.10;;;2.05;;
58152;SDS011;43967;51.634;5.566;2023-06-22T04:31:58;5.60;;;2.20;;
58152;SDS011;43967;51.634;5.566;2023-06-22T04:37:20;5.60;;;1.80;;
58152;SDS011;43967;51.634;5.566;2023-06-22T04:42:41;6.22;;;2.33;;
58152;SDS011;43967;51.634;5.566;2023-06-22T04:48:02;5.55;;;2.00;;
58152;SDS011;43967;51.634;5.566;2023-06-22T04:53:24;5.50;;;2.30;;
58152;SDS011;43967;51.634;5.566;2023-06-22T04:58:45;5.60;;;2.10;;
58152;SDS011;43967;51.634;5.566;2023-06-22T05:04:07;5.63;;;2.42;;
58152;SDS011;43967;51.634;5.566;2023-06-22T05:09:29;5.47;;;1.93;;
58152;SDS011;43967;51.634;5.566;2023-06-22T05:14:50;7.40;;;2.13;;
58152;SDS011;43967;51.634;5.566;2023-06-22T05:20:12;6.55;;;2.55;;
58152;SDS011;43967;51.634;5.566;2023-06-22T05:25:33;5.88;;;2.15;;
58152;SDS011;43967;51.634;5.566;2023-06-22T05:30:55;6.30;;;2.67;;
58152;SDS011;43967;51.634;5.566;2023-06-22T05:36:16;7.18;;;2.90;;
58152;SDS011;43967;51.634;5.566;2023-06-22T05:41:37;12.98;;;7.10;;
58152;SDS011;43967;51.634;5.566;2023-06-22T05:46:59;16.47;;;8.47;;
58152;SDS011;43967;51.634;5.566;2023-06-22T05:52:20;15.05;;;9.02;;
58152;SDS011;43967;51.634;5.566;2023-06-22T05:57:41;14.13;;;8.32;;
58152;SDS011;43967;51.634;5.566;2023-06-22T06:03:03;14.60;;;8.90;;
58152;SDS011;43967;51.634;5.566;2023-06-22T06:08:24;15.90;;;9.80;;
58152;SDS011;43967;51.634;5.566;2023-06-22T06:13:46;21.95;;;10.00;;
58152;SDS011;43967;51.634;5.566;2023-06-22T06:19:07;56.33;;;13.57;;
58152;SDS011;43967;51.634;5.566;2023-06-22T06:24:28;25.50;;;10.30;;
58152;SDS011;43967;51.634;5.566;2023-06-22T06:29:50;18.95;;;9.00;;
58152;SDS011;43967;51.634;5.566;2023-06-22T06:35:12;21.00;;;9.65;;
58152;SDS011;43967;51.634;5.566;2023-06-22T06:40:34;16.37;;;9.47;;
58152;SDS011;43967;51.634;5.566;2023-06-22T06:45:55;17.10;;;8.70;;
58152;SDS011;43967;51.634;5.566;2023-06-22T06:51:17;15.18;;;9.13;;
58152;SDS011;43967;51.634;5.566;2023-06-22T06:56:38;16.53;;;9.73;;
58152;SDS011;43967;51.634;5.566;2023-06-22T07:01:59;15.17;;;9.63;;
58152;SDS011;43967;51.634;5.566;2023-06-22T07:07:21;15.57;;;9.50;;
58152;SDS011;43967;51.634;5.566;2023-06-22T07:12:42;19.02;;;10.65;;
58152;SDS011;43967;51.634;5.566;2023-06-22T07:18:03;15.60;;;9.60;;
58152;SDS011;43967;51.634;5.566;2023-06-22T07:23:25;16.67;;;10.35;;
58152;SDS011;43967;51.634;5.566;2023-06-22T07:28:46;17.08;;;10.52;;
58152;SDS011;43967;51.634;5.566;2023-06-22T07:34:07;17.23;;;9.63;;
58152;SDS011;43967;51.634;5.566;2023-06-22T07:39:28;16.80;;;9.60;;
58152;SDS011;43967;51.634;5.566;2023-06-22T07:44:50;16.35;;;9.50;;
58152;SDS011;43967;51.634;5.566;2023-06-22T07:50:11;16.93;;;9.67;;
58152;SDS011;43967;51.634;5.566;2023-06-22T07:55:32;15.43;;;10.10;;
58152;SDS011;43967;51.634;5.566;2023-06-22T08:00:54;14.98;;;9.38;;
58152;SDS011;43967;51.634;5.566;2023-06-22T08:06:15;14.05;;;8.55;;
58152;SDS011;43967;51.634;5.566;2023-06-22T08:11:36;14.67;;;8.40;;
58152;SDS011;43967;51.634;5.566;2023-06-22T08:16:57;15.57;;;8.25;;
58152;SDS011;43967;51.634;5.566;2023-06-22T08:22:19;13.38;;;7.45;;
58152;SDS011;43967;51.634;5.566;2023-06-22T08:27:40;12.43;;;7.73;;
58152;SDS011;43967;51.634;5.566;2023-06-22T08:33:05;14.40;;;7.45;;
58152;SDS011;43967;51.634;5.566;2023-06-22T08:38:26;12.30;;;7.28;;
58152;SDS011;43967;51.634;5.566;2023-06-22T08:43:47;12.87;;;6.90;;
58152;SDS011;43967;51.634;5.566;2023-06-22T08:49:08;12.40;;;7.00;;
58152;SDS011;43967;51.634;5.566;2023-06-22T08:54:30;11.90;;;6.70;;
58152;SDS011;43967;51.634;5.566;2023-06-22T08:59:51;12.15;;;6.13;;
58152;SDS011;43967;51.634;5.566;2023-06-22T09:05:12;11.37;;;5.87;;
58152;SDS011;43967;51.634;5.566;2023-06-22T09:10:34;12.52;;;6.65;;
58152;SDS011;43967;51.634;5.566;2023-06-22T09:15:55;13.52;;;6.30;;
58152;SDS011;43967;51.634;5.566;2023-06-22T09:21:16;12.30;;;6.20;;
58152;SDS011;43967;51.634;5.566;2023-06-22T09:26:38;10.68;;;5.95;;
58152;SDS011;43967;51.634;5.566;2023-06-22T09:31:59;10.60;;;5.45;;
58152;SDS011;43967;51.634;5.566;2023-06-22T09:37:21;12.33;;;6.10;;
58152;SDS011;43967;51.634;5.566;2023-06-22T09:42:42;12.40;;;6.50;;
58152;SDS011;43967;51.634;5.566;2023-06-22T09:48:03;13.73;;;6.53;;
58152;SDS011;43967;51.634;5.566;2023-06-22T09:53:25;13.30;;;6.65;;
58152;SDS011;43967;51.634;5.566;2023-06-22T09:58:46;15.43;;;6.47;;
58152;SDS011;43967;51.634;5.566;2023-06-22T10:04:08;12.32;;;6.50;;
58152;SDS011;43967;51.634;5.566;2023-06-22T10:09:29;13.18;;;7.10;;
58152;SDS011;43967;51.634;5.566;2023-06-22T10:14:51;11.13;;;6.30;;
58152;SDS011;43967;51.634;5.566;2023-06-22T10:20:13;13.07;;;7.00;;
58152;SDS011;43967;51.634;5.566;2023-06-22T10:25:34;12.05;;;7.20;;
58152;SDS011;43967;51.634;5.566;2023-06-22T10:30:56;11.37;;;6.97;;
58152;SDS011;43967;51.634;5.566;2023-06-22T10:36:17;12.20;;;6.93;;
58152;SDS011;43967;51.634;5.566;2023-06-22T10:41:38;13.50;;;7.60;;
58152;SDS011;43967;51.634;5.566;2023-06-22T10:46:59;13.50;;;7.35;;
58152;SDS011;43967;51.634;5.566;2023-06-22T10:52:21;12.93;;;6.87;;
58152;SDS011;43967;51.634;5.566;2023-06-22T10:57:42;21.27;;;7.53;;
58152;SDS011;43967;51.634;5.566;2023-06-22T11:03:03;11.93;;;6.90;;
58152;SDS011;43967;51.634;5.566;2023-06-22T11:08:24;16.07;;;7.90;;
58152;SDS011;43967;51.634;5.566;2023-06-22T11:13:46;15.48;;;8.75;;
58152;SDS011;43967;51.634;5.566;2023-06-22T11:19:07;17.13;;;9.70;;
58152;SDS011;43967;51.634;5.566;2023-06-22T11:24:29;15.07;;;9.30;;
58152;SDS011;43967;51.634;5.566;2023-06-22T11:29:50;15.77;;;8.70;;
58152;SDS011;43967;51.634;5.566;2023-06-22T11:35:11;16.98;;;9.63;;
58152;SDS011;43967;51.634;5.566;2023-06-22T11:40:33;15.48;;;10.68;;
58152;SDS011;43967;51.634;5.566;2023-06-22T11:45:54;19.27;;;10.63;;
58152;SDS011;43967;51.634;5.566;2023-06-22T11:51:15;16.95;;;10.43;;
58152;SDS011;43967;51.634;5.566;2023-06-22T11:56:37;17.58;;;10.85;;
58152;SDS011;43967;51.634;5.566;2023-06-22T12:01:58;14.90;;;10.10;;
58152;SDS011;43967;51.634;5.566;2023-06-22T12:07:20;15.77;;;9.18;;
58152;SDS011;43967;51.634;5.566;2023-06-22T12:12:41;17.05;;;10.13;;
58152;SDS011;43967;51.634;5.566;2023-06-22T12:18:02;15.43;;;10.20;;
58152;SDS011;43967;51.634;5.566;2023-06-22T12:23:24;16.57;;;10.13;;
58152;SDS011;43967;51.634;5.566;2023-06-22T12:28:45;15.77;;;9.73;;
58152;SDS011;43967;51.634;5.566;2023-06-22T12:34:08;13.90;;;9.57;;
58152;SDS011;43967;51.634;5.566;2023-06-22T12:39:29;14.13;;;9.33;;
58152;SDS011;43967;51.634;5.566;2023-06-22T12:44:50;13.52;;;9.05;;
58152;SDS011;43967;51.634;5.566;2023-06-22T12:50:11;14.20;;;9.10;;
58152;SDS011;43967;51.634;5.566;2023-06-22T12:55:33;17.23;;;9.50;;
58152;SDS011;43967;51.634;5.566;2023-06-22T13:00:54;15.15;;;9.38;;
58152;SDS011;43967;51.634;5.566;2023-06-22T13:06:15;13.75;;;8.82;;
58152;SDS011;43967;51.634;5.566;2023-06-22T13:11:36;13.63;;;8.13;;
58152;SDS011;43967;51.634;5.566;2023-06-22T13:16:58;14.17;;;8.90;;
58152;SDS011;43967;51.634;5.566;2023-06-22T13:27:53;13.00;;;7.85;;
58152;SDS011;43967;51.634;5.566;2023-06-22T13:33:14;13.13;;;7.40;;
58152;SDS011;43967;51.634;5.566;2023-06-22T13:38:36;13.27;;;8.32;;
58152;SDS011;43967;51.634;5.566;2023-06-22T13:43:57;13.38;;;7.85;;
58152;SDS011;43967;51.634;5.566;2023-06-22T13:49:19;12.67;;;8.23;;
58152;SDS011;43967;51.634;5.566;2023-06-22T13:54:40;14.13;;;8.82;;
58152;SDS011;43967;51.634;5.566;2023-06-22T14:00:02;13.40;;;8.05;;
58152;SDS011;43967;51.634;5.566;2023-06-22T14:05:27;15.27;;;8.90;;
58152;SDS011;43967;51.634;5.566;2023-06-22T14:10:48;13.20;;;8.67;;
58152;SDS011;43967;51.634;5.566;2023-06-22T14:16:10;13.98;;;8.77;;
58152;SDS011;43967;51.634;5.566;2023-06-22T14:21:31;14.35;;;9.32;;
58152;SDS011;43967;51.634;5.566;2023-06-22T14:26:53;15.73;;;9.57;;
58152;SDS011;43967;51.634;5.566;2023-06-22T14:32:15;14.48;;;9.77;;
58152;SDS011;43967;51.634;5.566;2023-06-22T14:37:36;15.23;;;9.48;;
58152;SDS011;43967;51.634;5.566;2023-06-22T14:42:57;15.57;;;10.23;;
58152;SDS011;43967;51.634;5.566;2023-06-22T14:48:19;16.40;;;11.23;;
58152;SDS011;43967;51.634;5.566;2023-06-22T14:53:40;17.17;;;11.90;;
58152;SDS011;43967;51.634;5.566;2023-06-22T14:59:02;18.07;;;12.30;;
58152;SDS011;43967;51.634;5.566;2023-06-22T15:04:24;18.77;;;12.10;;
58152;SDS011;43967;51.634;5.566;2023-06-22T15:09:45;19.83;;;12.55;;
58152;SDS011;43967;51.634;5.566;2023-06-22T15:15:07;19.23;;;12.48;;
58152;SDS011;43967;51.634;5.566;2023-06-22T15:20:28;18.93;;;12.40;;
58152;SDS011;43967;51.634;5.566;2023-06-22T15:25:50;17.52;;;12.15;;
58152;SDS011;43967;51.634;5.566;2023-06-22T15:31:11;16.80;;;11.82;;
58152;SDS011;43967;51.634;5.566;2023-06-22T15:36:32;19.67;;;11.83;;
58152;SDS011;43967;51.634;5.566;2023-06-22T15:41:55;16.95;;;11.10;;
58152;SDS011;43967;51.634;5.566;2023-06-22T15:47:16;19.08;;;12.23;;
58152;SDS011;43967;51.634;5.566;2023-06-22T15:52:38;18.13;;;11.80;;
58152;SDS011;43967;51.634;5.566;2023-06-22T15:58:03;17.90;;;11.13;;
58152;SDS011;43967;51.634;5.566;2023-06-22T16:03:24;24.17;;;12.55;;
58152;SDS011;43967;51.634;5.566;2023-06-22T16:08:45;19.17;;;11.70;;
58152;SDS011;43967;51.634;5.566;2023-06-22T16:14:07;19.57;;;11.13;;
58152;SDS011;43967;51.634;5.566;2023-06-22T16:19:28;16.02;;;10.85;;
58152;SDS011;43967;51.634;5.566;2023-06-22T16:24:49;16.83;;;11.13;;
58152;SDS011;43967;51.634;5.566;2023-06-22T16:30:12;15.67;;;10.90;;
58152;SDS011;43967;51.634;5.566;2023-06-22T16:35:33;17.20;;;11.82;;
58152;SDS011;43967;51.634;5.566;2023-06-22T16:40:54;16.63;;;11.23;;
58152;SDS011;43967;51.634;5.566;2023-06-22T16:46:16;16.70;;;10.83;;
58152;SDS011;43967;51.634;5.566;2023-06-22T16:51:37;16.63;;;12.37;;
58152;SDS011;43967;51.634;5.566;2023-06-22T16:56:59;16.85;;;11.63;;
58152;SDS011;43967;51.634;5.566;2023-06-22T17:02:22;18.20;;;10.23;;
58152;SDS011;43967;51.634;5.566;2023-06-22T17:07:48;17.30;;;11.50;;
58152;SDS011;43967;51.634;5.566;2023-06-22T17:13:13;20.30;;;12.48;;
58152;SDS011;43967;51.634;5.566;2023-06-22T17:18:34;18.65;;;12.48;;
58152;SDS011;43967;51.634;5.566;2023-06-22T17:23:56;17.37;;;12.23;;
58152;SDS011;43967;51.634;5.566;2023-06-22T17:29:18;21.38;;;14.52;;
58152;SDS011;43967;51.634;5.566;2023-06-22T17:34:39;20.88;;;15.15;;
58152;SDS011;43967;51.634;5.566;2023-06-22T17:40:00;21.77;;;15.03;;
58152;SDS011;43967;51.634;5.566;2023-06-22T17:45:22;20.23;;;14.90;;
58152;SDS011;43967;51.634;5.566;2023-06-22T17:50:44;19.13;;;12.98;;
58152;SDS011;43967;51.634;5.566;2023-06-22T17:56:05;17.92;;;11.77;;
58152;SDS011;43967;51.634;5.566;2023-06-22T18:01:34;17.40;;;10.70;;
58152;SDS011;43967;51.634;5.566;2023-06-22T18:06:56;16.70;;;10.90;;
58152;SDS011;43967;51.634;5.566;2023-06-22T18:12:17;18.33;;;10.68;;
58152;SDS011;43967;51.634;5.566;2023-06-22T18:17:40;16.40;;;10.10;;
58152;SDS011;43967;51.634;5.566;2023-06-22T18:23:02;15.93;;;10.23;;
58152;SDS011;43967;51.634;5.566;2023-06-22T18:28:24;15.35;;;10.95;;
58152;SDS011;43967;51.634;5.566;2023-06-22T18:33:49;14.83;;;10.50;;
58152;SDS011;43967;51.634;5.566;2023-06-22T18:39:12;15.87;;;9.73;;
58152;SDS011;43967;51.634;5.566;2023-06-22T18:44:34;15.90;;;9.75;;
58152;SDS011;43967;51.634;5.566;2023-06-22T18:50:05;17.95;;;9.40;;
58152;SDS011;43967;51.634;5.566;2023-06-22T18:55:28;15.40;;;8.77;;
58152;SDS011;43967;51.634;5.566;2023-06-22T19:01:01;15.27;;;9.68;;
58152;SDS011;43967;51.634;5.566;2023-06-22T19:12:16;16.60;;;9.73;;
58152;SDS011;43967;51.634;5.566;2023-06-22T19:17:42;18.05;;;9.98;;
58152;SDS011;43967;51.634;5.566;2023-06-22T19:23:03;16.00;;;9.95;;
58152;SDS011;43967;51.634;5.566;2023-06-22T19:28:25;15.30;;;9.67;;
58152;SDS011;43967;51.634;5.566;2023-06-22T19:33:52;14.60;;;9.13;;
58152;SDS011;43967;51.634;5.566;2023-06-22T19:39:14;15.23;;;10.27;;
58152;SDS011;43967;51.634;5.566;2023-06-22T19:44:35;16.58;;;10.70;;
58152;SDS011;43967;51.634;5.566;2023-06-22T19:50:00;17.53;;;10.60;;
58152;SDS011;43967;51.634;5.566;2023-06-22T19:55:22;15.75;;;10.50;;
58152;SDS011;43967;51.634;5.566;2023-06-22T20:00:43;16.10;;;10.45;;
58152;SDS011;43967;51.634;5.566;2023-06-22T20:06:12;18.83;;;11.57;;
58152;SDS011;43967;51.634;5.566;2023-06-22T20:11:34;17.73;;;11.20;;
58152;SDS011;43967;51.634;5.566;2023-06-22T20:16:56;15.98;;;10.95;;
58152;SDS011;43967;51.634;5.566;2023-06-22T20:22:17;17.57;;;10.97;;
58152;SDS011;43967;51.634;5.566;2023-06-22T20:27:42;15.13;;;9.00;;
58152;SDS011;43967;51.634;5.566;2023-06-22T20:33:03;13.25;;;7.93;;
58152;SDS011;43967;51.634;5.566;2023-06-22T20:38:25;13.38;;;7.60;;
58152;SDS011;43967;51.634;5.566;2023-06-22T20:43:51;13.33;;;7.50;;
58152;SDS011;43967;51.634;5.566;2023-06-22T20:49:13;11.70;;;6.90;;
58152;SDS011;43967;51.634;5.566;2023-06-22T20:54:35;11.85;;;6.38;;
58152;SDS011;43967;51.634;5.566;2023-06-22T20:59:56;13.03;;;6.50;;
58152;SDS011;43967;51.634;5.566;2023-06-22T21:05:18;12.07;;;6.97;;
58152;SDS011;43967;51.634;5.566;2023-06-22T21:10:39;12.38;;;7.50;;
58152;SDS011;43967;51.634;5.566;2023-06-22T21:16:01;10.83;;;5.93;;
58152;SDS011;43967;51.634;5.566;2023-06-22T21:21:22;9.70;;;5.17;;
58152;SDS011;43967;51.634;5.566;2023-06-22T21:26:43;10.20;;;4.90;;
58152;SDS011;43967;51.634;5.566;2023-06-22T21:32:05;8.93;;;3.95;;
58152;SDS011;43967;51.634;5.566;2023-06-22T21:37:26;9.17;;;3.87;;
58152;SDS011;43967;51.634;5.566;2023-06-22T21:42:48;9.10;;;4.22;;
58152;SDS011;43967;51.634;5.566;2023-06-22T21:48:09;8.18;;;3.92;;
58152;SDS011;43967;51.634;5.566;2023-06-22T21:53:31;8.13;;;3.80;;
58152;SDS011;43967;51.634;5.566;2023-06-22T21:58:52;7.20;;;3.22;;
58152;SDS011;43967;51.634;5.566;2023-06-22T22:04:13;8.07;;;3.30;;
58152;SDS011;43967;51.634;5.566;2023-06-22T22:09:35;7.40;;;3.30;;
58152;SDS011;43967;51.634;5.566;2023-06-22T22:14:56;9.00;;;3.43;;
58152;SDS011;43967;51.634;5.566;2023-06-22T22:20:17;6.72;;;3.40;;
58152;SDS011;43967;51.634;5.566;2023-06-22T22:25:39;7.97;;;3.47;;
58152;SDS011;43967;51.634;5.566;2023-06-22T22:31:00;6.43;;;2.80;;
58152;SDS011;43967;51.634;5.566;2023-06-22T22:36:22;6.88;;;3.55;;
58152;SDS011;43967;51.634;5.566;2023-06-22T22:41:43;6.63;;;3.10;;
58152;SDS011;43967;51.634;5.566;2023-06-22T22:47:04;7.10;;;2.97;;
58152;SDS011;43967;51.634;5.566;2023-06-22T22:52:26;7.57;;;3.28;;
58152;SDS011;43967;51.634;5.566;2023-06-22T22:57:49;6.63;;;3.20;;
58152;SDS011;43967;51.634;5.566;2023-06-22T23:03:11;6.50;;;3.13;;
58152;SDS011;43967;51.634;5.566;2023-06-22T23:08:32;6.97;;;3.30;;
58152;SDS011;43967;51.634;5.566;2023-06-22T23:13:54;7.03;;;3.17;;
58152;SDS011;43967;51.634;5.566;2023-06-22T23:19:16;6.85;;;2.95;;
58152;SDS011;43967;51.634;5.566;2023-06-22T23:24:37;6.37;;;2.60;;
58152;SDS011;43967;51.634;5.566;2023-06-22T23:29:58;7.05;;;2.97;;
58152;SDS011;43967;51.634;5.566;2023-06-22T23:35:20;7.03;;;3.10;;
58152;SDS011;43967;51.634;5.566;2023-06-22T23:40:41;7.57;;;3.23;;
58152;SDS011;43967;51.634;5.566;2023-06-22T23:46:02;6.47;;;2.70;;
58152;SDS011;43967;51.634;5.566;2023-06-22T23:51:24;6.38;;;2.85;;
58152;SDS011;43967;51.634;5.566;2023-06-22T23:56:45;6.20;;;2.80;;
